createdAt,value
2023-04-28T00:00:53.957Z,2.40
2023-04-28T00:03:21.907Z,2.30
2023-04-28T00:05:49.791Z,2.10
2023-04-28T00:08:17.564Z,2.10
2023-04-28T00:10:45.293Z,2.40
2023-04-28T00:13:14.422Z,2.40
2023-04-28T00:15:42.155Z,2.40
2023-04-28T00:18:09.953Z,2.30
2023-04-28T00:20:37.746Z,2.17
2023-04-28T00:23:05.582Z,2.17
2023-04-28T00:25:33.317Z,2.60
2023-04-28T00:28:01.741Z,2.20
2023-04-28T00:30:31.122Z,2.23
2023-04-28T00:32:58.977Z,2.20
2023-04-28T00:35:26.786Z,2.30
2023-04-28T00:37:54.532Z,2.20
2023-04-28T00:40:24.849Z,2.17
2023-04-28T00:42:52.608Z,2.13
2023-04-28T00:45:20.590Z,2.40
2023-04-28T00:47:49.698Z,2.10
2023-04-28T00:50:17.678Z,2.13
2023-04-28T00:52:45.483Z,2.30
2023-04-28T00:55:16.163Z,2.17
2023-04-28T00:57:44.302Z,2.20
2023-04-28T01:00:12.783Z,2.40
2023-04-28T01:02:40.587Z,2.20
2023-04-28T01:05:10.081Z,2.10
2023-04-28T01:07:37.828Z,2.20
2023-04-28T01:10:05.834Z,2.37
2023-04-28T01:12:33.559Z,2.17
2023-04-28T01:15:01.639Z,1.97
2023-04-28T01:17:29.556Z,2.23
2023-04-28T01:19:57.311Z,2.10
2023-04-28T01:22:26.498Z,2.30
2023-04-28T01:24:55.706Z,2.20
2023-04-28T01:27:24.532Z,1.90
2023-04-28T01:29:52.238Z,2.20
2023-04-28T01:32:19.977Z,2.10
2023-04-28T01:34:48.019Z,2.20
2023-04-28T01:37:15.906Z,2.10
2023-04-28T01:39:43.622Z,2.10
2023-04-28T01:42:12.753Z,2.10
2023-04-28T01:44:41.273Z,2.23
2023-04-28T01:47:08.960Z,2.10
2023-04-28T01:49:36.689Z,2.10
2023-04-28T01:52:04.522Z,2.30
2023-04-28T01:54:32.248Z,2.00
2023-04-28T01:57:00.046Z,2.10
2023-04-28T01:59:29.345Z,2.07
2023-04-28T02:01:57.230Z,2.20
2023-04-28T02:04:25.072Z,2.10
2023-04-28T02:06:53.035Z,1.80
2023-04-28T02:09:20.880Z,2.10
2023-04-28T02:11:48.611Z,2.10
2023-04-28T02:14:16.611Z,1.97
2023-04-28T02:16:46.020Z,1.90
2023-04-28T02:19:13.770Z,2.20
2023-04-28T02:21:42.741Z,2.10
2023-04-28T02:24:10.495Z,2.13
2023-04-28T02:26:38.290Z,2.30
2023-04-28T02:29:06.052Z,2.20
2023-04-28T02:31:34.158Z,2.10
2023-04-28T02:34:03.330Z,2.10
2023-04-28T02:36:32.008Z,2.00
2023-04-28T02:38:59.790Z,2.20
2023-04-28T02:41:27.519Z,2.03
2023-04-28T02:43:55.248Z,2.20
2023-04-28T02:46:23.065Z,1.97
2023-04-28T02:48:51.155Z,1.90
2023-04-28T02:51:20.266Z,2.10
2023-04-28T02:53:48.017Z,1.93
2023-04-28T02:56:15.774Z,1.90
2023-04-28T02:58:43.452Z,2.00
2023-04-28T03:01:11.220Z,2.23
2023-04-28T03:03:39.261Z,2.10
2023-04-28T03:06:07.332Z,2.40
2023-04-28T03:08:36.469Z,2.30
2023-04-28T03:11:04.210Z,2.33
2023-04-28T03:13:34.700Z,2.60
2023-04-28T03:16:02.482Z,2.70
2023-04-28T03:18:30.255Z,2.60
2023-04-28T03:20:57.996Z,2.70
2023-04-28T03:23:25.752Z,4.40
2023-04-28T03:25:54.888Z,7.77
2023-04-28T03:28:22.613Z,3.37
2023-04-28T03:30:50.355Z,2.53
2023-04-28T03:33:18.052Z,2.60
2023-04-28T03:35:45.770Z,2.33
2023-04-28T03:38:13.604Z,2.50
2023-04-28T03:40:41.367Z,2.30
2023-04-28T03:43:10.539Z,2.30
2023-04-28T03:45:38.376Z,2.10
2023-04-28T03:48:06.362Z,2.40
2023-04-28T03:50:34.123Z,2.40
2023-04-28T03:53:02.239Z,4.43
2023-04-28T03:55:30.095Z,6.40
2023-04-28T03:57:57.832Z,6.40
2023-04-28T04:00:26.985Z,5.97
2023-04-28T04:02:54.837Z,6.03
2023-04-28T04:05:22.789Z,5.63
2023-04-28T04:07:50.531Z,6.40
2023-04-28T04:10:18.442Z,6.23
2023-04-28T04:12:48.316Z,6.60
2023-04-28T04:15:16.183Z,6.73
2023-04-28T04:17:45.371Z,6.23
2023-04-28T04:20:13.453Z,6.10
2023-04-28T04:22:41.319Z,6.50
2023-04-28T04:25:09.402Z,5.87
2023-04-28T04:27:37.148Z,5.63
2023-04-28T04:30:05.228Z,5.90
2023-04-28T04:32:33.066Z,5.87
2023-04-28T04:35:02.221Z,5.63
2023-04-28T04:37:29.894Z,6.00
2023-04-28T04:39:59.982Z,6.77
2023-04-28T04:42:27.654Z,6.00
2023-04-28T04:44:55.382Z,6.10
2023-04-28T04:47:24.058Z,6.57
2023-04-28T04:49:52.279Z,6.23
2023-04-28T04:52:21.371Z,6.37
2023-04-28T04:54:49.092Z,5.80
2023-04-28T04:57:16.799Z,5.90
2023-04-28T04:59:44.503Z,5.90
2023-04-28T05:02:12.367Z,5.50
2023-04-28T05:04:40.316Z,5.60
2023-04-28T05:07:08.211Z,5.23
2023-04-28T05:09:37.416Z,5.43
2023-04-28T05:12:05.713Z,5.13
2023-04-28T05:14:33.436Z,4.13
2023-04-28T05:17:01.296Z,4.10
2023-04-28T05:19:29.023Z,4.47
2023-04-28T05:21:56.776Z,4.10
2023-04-28T05:24:24.740Z,3.93
2023-04-28T05:26:54.261Z,3.97
2023-04-28T05:29:22.030Z,3.57
2023-04-28T05:31:49.862Z,3.70
2023-04-28T05:34:17.778Z,3.60
2023-04-28T05:36:45.935Z,3.60
2023-04-28T05:39:13.721Z,3.40
2023-04-28T05:41:41.547Z,3.47
2023-04-28T05:44:10.636Z,3.47
2023-04-28T05:46:38.399Z,3.77
2023-04-28T05:49:06.286Z,3.73
2023-04-28T05:51:34.144Z,3.40
2023-04-28T05:54:01.914Z,3.30
2023-04-28T05:56:29.920Z,3.33
2023-04-28T05:58:58.784Z,2.93
2023-04-28T06:01:27.944Z,3.10
2023-04-28T06:03:58.143Z,3.37
2023-04-28T06:06:26.455Z,3.40
2023-04-28T06:08:54.520Z,3.40
2023-04-28T06:11:22.952Z,3.53
2023-04-28T06:13:51.070Z,3.13
2023-04-28T06:16:18.952Z,3.10
2023-04-28T06:18:49.833Z,2.90
2023-04-28T06:21:17.977Z,3.00
2023-04-28T06:23:46.087Z,2.77
2023-04-28T06:26:14.732Z,3.17
2023-04-28T06:28:43.418Z,3.07
2023-04-28T06:31:11.236Z,3.10
2023-04-28T06:33:39.053Z,2.97
2023-04-28T06:36:08.898Z,2.83
2023-04-28T06:38:37.545Z,3.07
2023-04-28T06:41:05.397Z,3.17
2023-04-28T06:43:33.586Z,2.90
2023-04-28T06:46:01.360Z,3.30
2023-04-28T06:48:29.226Z,2.97
2023-04-28T06:50:56.948Z,2.70
2023-04-28T06:53:26.129Z,3.00
2023-04-28T06:55:53.932Z,3.00
2023-04-28T06:58:21.907Z,2.90
2023-04-28T07:00:49.711Z,2.67
2023-04-28T07:03:17.631Z,2.90
2023-04-28T07:05:45.575Z,2.80
2023-04-28T07:08:13.433Z,3.00
2023-04-28T07:10:43.137Z,2.80
2023-04-28T07:13:11.238Z,2.73
2023-04-28T07:15:39.518Z,3.03
2023-04-28T07:18:07.613Z,3.10
2023-04-28T07:20:35.482Z,3.20
2023-04-28T07:23:03.447Z,3.00
2023-04-28T07:25:31.268Z,3.10
2023-04-28T07:28:00.435Z,3.23
2023-04-28T07:30:28.471Z,3.17
2023-04-28T07:32:56.544Z,3.63
2023-04-28T07:35:24.528Z,3.30
2023-04-28T07:37:52.277Z,3.53
2023-04-28T07:40:20.356Z,3.10
2023-04-28T07:42:48.623Z,3.40
2023-04-28T07:45:17.830Z,3.10
2023-04-28T07:47:45.609Z,3.40
2023-04-28T07:50:13.433Z,3.50
2023-04-28T07:52:41.190Z,2.93
2023-04-28T07:55:09.216Z,3.20
2023-04-28T07:57:37.033Z,3.30
2023-04-28T08:00:05.578Z,3.27
2023-04-28T08:02:34.791Z,3.33
2023-04-28T08:05:03.060Z,3.57
2023-04-28T08:07:34.234Z,3.30
2023-04-28T08:10:02.300Z,3.00
2023-04-28T08:12:30.144Z,3.47
2023-04-28T08:14:57.870Z,3.57
2023-04-28T08:17:26.040Z,3.20
2023-04-28T08:19:55.269Z,3.50
2023-04-28T08:22:23.272Z,3.40
2023-04-28T08:24:51.064Z,3.53
2023-04-28T08:27:18.818Z,4.00
2023-04-28T08:29:46.603Z,3.70
2023-04-28T08:32:14.329Z,3.90
2023-04-28T08:34:42.100Z,3.77
2023-04-28T08:37:11.289Z,3.90
2023-04-28T08:39:39.024Z,3.47
2023-04-28T08:42:06.919Z,3.63
2023-04-28T08:44:38.267Z,3.43
2023-04-28T08:47:06.477Z,3.97
2023-04-28T08:49:36.278Z,3.90
2023-04-28T08:52:04.262Z,3.60
2023-04-28T08:54:36.823Z,3.77
2023-04-28T08:57:05.698Z,3.80
2023-04-28T08:59:33.702Z,3.57
2023-04-28T09:02:01.586Z,3.63
2023-04-28T09:04:29.829Z,3.60
2023-04-28T09:06:57.795Z,3.50
2023-04-28T09:09:26.629Z,3.50
2023-04-28T09:11:56.728Z,3.50
2023-04-28T09:14:24.783Z,3.20
2023-04-28T09:16:52.922Z,3.20
2023-04-28T09:19:20.795Z,3.30
2023-04-28T09:21:52.900Z,3.00
2023-04-28T09:24:30.535Z,3.50
2023-04-28T09:26:59.927Z,3.23
2023-04-28T09:29:27.791Z,3.10
2023-04-28T09:31:55.849Z,2.80
2023-04-28T09:34:23.587Z,2.77
2023-04-28T09:36:51.680Z,2.70
2023-04-28T09:39:29.652Z,2.87
2023-04-28T09:41:57.452Z,2.40
2023-04-28T09:44:26.770Z,2.50
2023-04-28T09:46:54.676Z,2.40
2023-04-28T09:49:22.439Z,2.90
2023-04-28T09:51:50.468Z,2.80
2023-04-28T09:54:18.527Z,2.70
2023-04-28T09:56:48.567Z,3.00
2023-04-28T09:59:16.331Z,2.53
2023-04-28T10:01:46.282Z,2.60
2023-04-28T10:04:14.480Z,2.60
2023-04-28T10:06:42.784Z,2.53
2023-04-28T10:09:12.411Z,3.00
2023-04-28T10:11:40.710Z,2.80
2023-04-28T10:14:08.448Z,2.80
2023-04-28T10:16:36.332Z,3.17
2023-04-28T10:19:06.001Z,3.10
2023-04-28T10:21:34.766Z,3.03
2023-04-28T10:24:10.214Z,3.20
2023-04-28T10:26:52.755Z,3.00
2023-04-28T10:29:24.691Z,3.03
2023-04-28T10:32:11.043Z,2.90
2023-04-28T10:34:40.152Z,2.87
2023-04-28T10:37:07.975Z,2.90
2023-04-28T10:39:35.786Z,3.00
2023-04-28T10:42:03.545Z,2.80
2023-04-28T10:44:44.002Z,2.83
2023-04-28T10:47:11.861Z,3.00
2023-04-28T10:49:58.409Z,2.83
2023-04-28T10:52:44.548Z,3.30
2023-04-28T10:55:33.431Z,2.90
2023-04-28T10:58:19.971Z,2.80
2023-04-28T11:00:48.700Z,2.57
2023-04-28T11:03:32.203Z,2.40
2023-04-28T11:06:19.263Z,2.50
2023-04-28T11:08:47.046Z,2.47
2023-04-28T11:11:19.876Z,2.90
2023-04-28T11:13:48.250Z,2.90
2023-04-28T11:16:17.594Z,3.13
2023-04-28T11:18:59.283Z,3.10
2023-04-28T11:21:28.430Z,2.70
2023-04-28T11:23:56.451Z,2.97
2023-04-28T11:26:25.916Z,2.53
2023-04-28T11:28:54.495Z,2.87
2023-04-28T11:31:24.134Z,2.90
2023-04-28T11:33:56.638Z,3.10
2023-04-28T11:36:25.257Z,3.20
2023-04-28T11:38:53.083Z,3.10
2023-04-28T11:41:20.890Z,3.30
2023-04-28T11:43:50.170Z,3.20
2023-04-28T11:46:19.154Z,3.30
2023-04-28T11:48:47.101Z,3.00
2023-04-28T11:51:38.178Z,3.30
2023-04-28T11:54:07.577Z,3.47
2023-04-28T11:56:38.596Z,3.50
2023-04-28T11:59:09.277Z,3.40
2023-04-28T12:01:45.222Z,3.40
2023-04-28T12:04:14.300Z,3.80
2023-04-28T12:06:43.676Z,3.73
2023-04-28T12:09:18.055Z,3.80
2023-04-28T12:11:55.958Z,3.57
2023-04-28T12:14:28.008Z,3.50
2023-04-28T12:16:56.996Z,3.70
2023-04-28T12:19:24.780Z,3.63
2023-04-28T12:22:03.017Z,3.90
2023-04-28T12:24:30.892Z,3.80
2023-04-28T12:27:13.493Z,4.17
2023-04-28T12:29:43.604Z,3.63
2023-04-28T12:32:11.982Z,3.90
2023-04-28T12:34:40.963Z,4.10
2023-04-28T12:37:09.092Z,3.57
2023-04-28T12:39:39.667Z,3.70
2023-04-28T12:42:08.093Z,4.00
2023-04-28T12:44:36.666Z,4.30
2023-04-28T12:47:15.406Z,4.60
2023-04-28T12:49:43.256Z,3.90
2023-04-28T12:52:11.388Z,4.90
2023-04-28T12:54:39.199Z,4.27
2023-04-28T12:57:06.963Z,4.90
2023-04-28T12:59:34.768Z,4.97
2023-04-28T13:02:02.765Z,5.20
2023-04-28T13:04:32.826Z,4.93
2023-04-28T13:07:00.986Z,5.50
2023-04-28T13:09:28.791Z,5.40
2023-04-28T13:11:56.834Z,5.13
2023-04-28T13:14:24.760Z,5.57
2023-04-28T13:16:54.573Z,5.37
2023-04-28T13:19:22.356Z,4.90
2023-04-28T13:21:52.285Z,4.97
2023-04-28T13:24:20.033Z,5.00
2023-04-28T13:26:47.795Z,5.30
2023-04-28T13:29:15.635Z,4.83
2023-04-28T13:31:43.339Z,4.40
2023-04-28T13:34:16.060Z,4.83
2023-04-28T13:36:44.116Z,4.40
2023-04-28T13:39:16.323Z,3.97
2023-04-28T13:41:44.138Z,4.47
2023-04-28T13:44:11.867Z,5.00
2023-04-28T13:46:39.659Z,4.83
2023-04-28T13:49:07.364Z,4.93
2023-04-28T13:51:35.342Z,5.30
2023-04-28T13:54:04.756Z,5.07
2023-04-28T13:56:34.014Z,5.07
2023-04-28T13:59:02.095Z,4.73
2023-04-28T14:01:29.998Z,4.83
2023-04-28T14:03:58.037Z,4.90
2023-04-28T14:06:26.140Z,5.47
2023-04-28T14:08:53.860Z,5.20
2023-04-28T14:11:21.690Z,4.77
2023-04-28T14:13:51.060Z,4.47
2023-04-28T14:16:18.851Z,4.67
2023-04-28T14:18:46.634Z,4.77
2023-04-28T14:21:14.312Z,4.97
2023-04-28T14:23:42.119Z,5.47
2023-04-28T14:26:09.814Z,5.27
2023-04-28T14:28:37.888Z,4.93
2023-04-28T14:31:08.938Z,4.87
2023-04-28T14:33:37.123Z,5.10
2023-04-28T14:36:05.293Z,4.50
2023-04-28T14:38:33.073Z,4.50
2023-04-28T14:41:00.814Z,4.60
2023-04-28T14:43:28.517Z,4.80
2023-04-28T14:45:56.277Z,5.23
2023-04-28T14:48:26.099Z,5.20
2023-04-28T14:50:56.501Z,5.33
2023-04-28T14:53:24.878Z,5.10
2023-04-28T14:55:56.004Z,5.70
2023-04-28T14:58:25.582Z,5.33
2023-04-28T15:00:53.508Z,5.00
2023-04-28T15:03:21.414Z,5.90
2023-04-28T15:05:50.670Z,5.40
2023-04-28T15:08:18.363Z,5.43
2023-04-28T15:10:46.115Z,5.73
2023-04-28T15:13:13.823Z,5.00
2023-04-28T15:15:41.661Z,4.97
2023-04-28T15:18:10.155Z,5.23
2023-04-28T15:20:38.383Z,4.97
2023-04-28T15:23:07.532Z,4.87
2023-04-28T15:25:35.292Z,5.17
2023-04-28T15:28:04.014Z,5.20
2023-04-28T15:30:32.272Z,5.40
2023-04-28T15:33:00.175Z,5.30
2023-04-28T15:35:28.485Z,4.90
2023-04-28T15:37:56.995Z,5.20
2023-04-28T15:40:26.136Z,5.40
2023-04-28T15:42:53.866Z,5.03
2023-04-28T15:45:22.459Z,5.47
2023-04-28T15:47:50.932Z,5.30
2023-04-28T15:50:20.354Z,5.53
2023-04-28T15:52:50.156Z,5.03
2023-04-28T15:55:18.732Z,5.37
2023-04-28T15:57:48.111Z,5.50
2023-04-28T16:00:16.533Z,5.70
2023-04-28T16:02:45.057Z,5.23
2023-04-28T16:05:13.413Z,5.77
2023-04-28T16:07:41.925Z,5.43
2023-04-28T16:10:10.872Z,4.73
2023-04-28T16:12:38.985Z,5.00
2023-04-28T16:15:08.855Z,4.67
2023-04-28T16:17:38.276Z,4.77
2023-04-28T16:20:06.987Z,4.60
2023-04-28T16:22:34.734Z,4.60
2023-04-28T16:25:04.070Z,4.40
2023-04-28T16:27:32.200Z,4.73
2023-04-28T16:30:00.049Z,4.30
2023-04-28T16:32:29.307Z,3.43
2023-04-28T16:34:59.156Z,4.00
2023-04-28T16:37:26.974Z,4.00
2023-04-28T16:39:54.795Z,3.60
2023-04-28T16:42:22.719Z,3.40
2023-04-28T16:44:52.553Z,3.70
2023-04-28T16:47:21.049Z,3.47
2023-04-28T16:49:50.431Z,3.33
2023-04-28T16:52:18.277Z,3.50
2023-04-28T16:54:46.009Z,3.40
2023-04-28T16:57:13.739Z,3.40
2023-04-28T16:59:41.494Z,4.07
2023-04-28T17:02:09.212Z,3.83
2023-04-28T17:04:37.829Z,3.73
2023-04-28T17:07:07.405Z,3.23
2023-04-28T17:09:35.260Z,3.73
2023-04-28T17:12:03.885Z,4.00
2023-04-28T17:14:31.749Z,4.30
2023-04-28T17:16:59.652Z,3.90
2023-04-28T17:19:27.589Z,3.83
2023-04-28T17:21:55.786Z,3.90
2023-04-28T17:24:24.945Z,4.23
2023-04-28T17:26:52.733Z,4.33
2023-04-28T17:29:22.296Z,4.53
2023-04-28T17:31:50.231Z,4.53
2023-04-28T17:34:19.984Z,4.93
2023-04-28T17:36:47.753Z,4.60
2023-04-28T17:39:16.598Z,4.80
2023-04-28T17:41:46.923Z,4.87
2023-04-28T17:44:14.633Z,4.63
2023-04-28T17:46:42.435Z,4.83
2023-04-28T17:49:10.191Z,4.53
2023-04-28T17:51:38.223Z,4.70
2023-04-28T17:54:09.578Z,4.53
2023-04-28T17:56:37.877Z,4.37
2023-04-28T17:59:08.905Z,4.30
2023-04-28T18:01:36.874Z,4.17
2023-04-28T18:04:04.688Z,3.80
2023-04-28T18:06:32.408Z,3.73
2023-04-28T18:09:00.200Z,3.80
2023-04-28T18:11:28.214Z,4.00
2023-04-28T18:13:55.998Z,4.00
2023-04-28T18:16:25.244Z,3.83
2023-04-28T18:18:53.032Z,3.50
2023-04-28T18:21:20.748Z,3.50
2023-04-28T18:23:48.499Z,3.17
2023-04-28T18:26:16.522Z,3.67
2023-04-28T18:28:46.984Z,4.00
2023-04-28T18:31:14.867Z,3.47
2023-04-28T18:33:45.058Z,3.73
2023-04-28T18:36:12.862Z,3.80
2023-04-28T18:38:40.564Z,3.23
2023-04-28T18:41:14.850Z,3.80
2023-04-28T18:43:43.428Z,3.13
2023-04-28T18:46:11.308Z,3.53
2023-04-28T18:48:40.063Z,3.90
2023-04-28T18:51:09.275Z,3.20
2023-04-28T18:53:37.125Z,3.33
2023-04-28T18:56:05.028Z,3.10
2023-04-28T18:58:32.993Z,3.17
2023-04-28T19:01:00.758Z,3.10
2023-04-28T19:03:28.750Z,3.10
2023-04-28T19:05:56.658Z,3.30
2023-04-28T19:08:25.887Z,3.00
2023-04-28T19:10:53.678Z,3.40
2023-04-28T19:13:21.519Z,3.20
2023-04-28T19:15:52.971Z,3.30
2023-04-28T19:18:21.122Z,3.27
2023-04-28T19:20:50.618Z,3.10
2023-04-28T19:23:18.564Z,2.83
2023-04-28T19:25:48.451Z,3.70
2023-04-28T19:28:16.394Z,3.73
2023-04-28T19:30:44.120Z,4.00
2023-04-28T19:33:12.000Z,3.60
2023-04-28T19:35:40.126Z,3.77
2023-04-28T19:38:08.482Z,3.87
2023-04-28T19:40:36.354Z,4.07
2023-04-28T19:43:06.011Z,4.13
2023-04-28T19:45:35.044Z,3.90
2023-04-28T19:48:02.877Z,3.70
2023-04-28T19:50:30.753Z,3.80
2023-04-28T19:52:58.583Z,3.90
2023-04-28T19:55:26.346Z,3.80
2023-04-28T19:57:57.194Z,3.87
2023-04-28T20:00:26.792Z,3.53
2023-04-28T20:02:54.738Z,3.40
2023-04-28T20:05:23.023Z,3.50
2023-04-28T20:07:50.992Z,3.00
2023-04-28T20:10:19.187Z,3.80
2023-04-28T20:12:47.092Z,3.97
2023-04-28T20:15:16.669Z,3.83
2023-04-28T20:17:46.267Z,3.63
2023-04-28T20:20:14.213Z,4.27
2023-04-28T20:22:41.981Z,3.33
2023-04-28T20:25:10.930Z,3.70
2023-04-28T20:27:38.784Z,4.03
2023-04-28T20:30:07.282Z,4.70
2023-04-28T20:32:36.779Z,4.03
2023-04-28T20:35:06.809Z,3.93
2023-04-28T20:37:34.567Z,4.10
2023-04-28T20:40:02.323Z,4.30
2023-04-28T20:42:30.662Z,3.87
2023-04-28T20:44:58.769Z,4.50
2023-04-28T20:47:26.577Z,3.60
2023-04-28T20:49:54.367Z,3.90
2023-04-28T20:52:23.485Z,3.90
2023-04-28T20:54:52.190Z,9.47
2023-04-28T20:57:19.994Z,9.30
2023-04-28T20:59:47.759Z,8.80
2023-04-28T21:02:15.629Z,7.40
2023-04-28T21:04:43.486Z,4.97
2023-04-28T21:07:11.189Z,4.33
2023-04-28T21:09:42.200Z,3.97
2023-04-28T21:12:10.047Z,4.20
2023-04-28T21:14:38.021Z,3.83
2023-04-28T21:17:05.726Z,3.90
2023-04-28T21:19:33.686Z,3.87
2023-04-28T21:22:02.215Z,4.00
2023-04-28T21:24:30.176Z,3.70
2023-04-28T21:26:59.714Z,3.80
2023-04-28T21:29:27.667Z,3.40
2023-04-28T21:31:55.500Z,3.60
2023-04-28T21:34:23.450Z,3.30
2023-04-28T21:36:51.442Z,3.50
2023-04-28T21:39:19.200Z,3.10
2023-04-28T21:41:47.019Z,3.30
2023-04-28T21:44:16.513Z,4.27
2023-04-28T21:46:44.334Z,3.50
2023-04-28T21:49:12.146Z,4.10
2023-04-28T21:51:42.274Z,3.50
2023-04-28T21:54:10.061Z,3.43
2023-04-28T21:56:37.868Z,3.40
2023-04-28T21:59:05.677Z,3.80
2023-04-28T22:01:35.634Z,3.70
2023-04-28T22:04:03.745Z,3.67
2023-04-28T22:06:32.521Z,3.60
2023-04-28T22:09:01.421Z,3.73
2023-04-28T22:11:29.263Z,3.60
2023-04-28T22:13:56.987Z,3.87
2023-04-28T22:16:24.900Z,3.73
2023-04-28T22:18:54.150Z,3.37
2023-04-28T22:21:22.044Z,3.27
2023-04-28T22:23:49.860Z,3.40
2023-04-28T22:26:19.224Z,3.40
2023-04-28T22:28:46.925Z,2.87
2023-04-28T22:31:14.771Z,3.40
2023-04-28T22:33:42.604Z,3.60
2023-04-28T22:36:12.081Z,3.63
2023-04-28T22:38:39.825Z,3.60
2023-04-28T22:41:07.595Z,3.60
2023-04-28T22:43:35.332Z,3.77
2023-04-28T22:46:03.135Z,3.60
2023-04-28T22:48:30.884Z,3.33
2023-04-28T22:50:58.635Z,3.33
2023-04-28T22:53:27.789Z,3.20
2023-04-28T22:55:56.762Z,3.10
2023-04-28T22:58:24.596Z,3.10
2023-04-28T23:00:52.301Z,3.00
2023-04-28T23:03:21.304Z,3.10
2023-04-28T23:05:49.205Z,3.10
2023-04-28T23:08:16.895Z,2.60
2023-04-28T23:10:46.415Z,2.70
2023-04-28T23:13:14.160Z,2.70
2023-04-28T23:15:41.893Z,2.97
2023-04-28T23:18:09.722Z,3.20
2023-04-28T23:20:37.470Z,2.27
2023-04-28T23:23:05.464Z,2.30
2023-04-28T23:25:33.626Z,2.63
2023-04-28T23:28:03.243Z,2.77
2023-04-28T23:30:30.971Z,3.23
2023-04-28T23:32:58.804Z,3.53
2023-04-28T23:35:26.532Z,3.53
2023-04-28T23:37:54.262Z,3.60
2023-04-28T23:40:22.021Z,3.70
2023-04-28T23:42:49.735Z,3.60
2023-04-28T23:45:19.186Z,4.10
2023-04-28T23:47:47.332Z,3.67
2023-04-28T23:50:15.266Z,3.63
2023-04-28T23:52:43.972Z,4.17
2023-04-28T23:55:12.947Z,4.00
2023-04-28T23:57:40.774Z,4.00
